Time;durP1;ratioP1;P1;durP2;ratioP2;P2;SDS_P1;SDS_P2;PMS_P1;PMS_P2;Temp;Humidity;BMP_temperature;BMP_pressure;BME280_temperature;BME280_humidity;BME280_pressure;Samples;Min_cycle;Max_cycle;Signal;HPM_P1;HPM_P2
2022/10/16 00:01:35;;;;;;;9.38;2.67;;;;;;;9.91;100.00;99801.88;5033429;28;20070;-52
2022/10/16 00:04:01;;;;;;;5.22;1.08;;;;;;;9.89;100.00;99794.16;5038437;28;20033;-47
2022/10/16 00:06:27;;;;;;;8.50;2.25;;;;;;;9.85;100.00;99800.03;5040552;28;20032;-48
2022/10/16 00:08:54;;;;;;;5.88;0.25;;;;;;;9.86;100.00;99796.38;5034218;28;20060;-50
2022/10/16 00:11:25;;;;;;;3.67;0.63;;;;;;;9.80;100.00;99801.44;5039119;28;20033;-52
2022/10/16 00:13:54;;;;;;;8.32;2.58;;;;;;;9.88;100.00;99792.50;5034566;28;20033;-49
2022/10/16 00:16:20;;;;;;;5.07;1.02;;;;;;;9.82;100.00;99796.78;5037383;28;20403;-50
2022/10/16 00:18:45;;;;;;;6.43;1.55;;;;;;;9.85;100.00;99797.41;5039532;28;20025;-51
2022/10/16 00:21:23;;;;;;;13.82;1.05;;;;;;;9.92;100.00;99793.75;5037588;28;20025;-50
2022/10/16 00:23:53;;;;;;;7.40;1.60;;;;;;;9.95;100.00;99801.28;5030444;28;20025;-51
2022/10/16 00:26:19;;;;;;;5.90;0.50;;;;;;;9.90;100.00;99801.06;5035853;28;20421;-48
2022/10/16 00:28:49;;;;;;;13.00;1.98;;;;;;;9.95;100.00;99809.22;5038303;28;20057;-50
2022/10/16 00:31:17;;;;;;;7.05;2.15;;;;;;;9.99;100.00;99801.66;5041371;28;20488;-49
2022/10/16 00:33:42;;;;;;;15.65;1.38;;;;;;;9.96;100.00;99800.25;5044745;28;20021;-51
2022/10/16 00:36:12;;;;;;;4.43;0.50;;;;;;;9.89;100.00;99806.56;5034392;28;20304;-51
2022/10/16 00:38:38;;;;;;;5.15;0.88;;;;;;;9.85;100.00;99806.16;5038378;28;20095;-50
2022/10/16 00:41:05;;;;;;;6.68;0.60;;;;;;;9.83;100.00;99797.59;5042208;28;20029;-48
2022/10/16 00:43:41;;;;;;;9.23;0.82;;;;;;;9.83;100.00;99800.22;5037797;28;20136;-47
2022/10/16 00:46:12;;;;;;;12.77;1.27;;;;;;;9.91;100.00;99807.97;5040128;28;20026;-48
2022/10/16 00:48:38;;;;;;;11.00;1.45;;;;;;;9.90;100.00;99811.66;5034531;28;20032;-48
2022/10/16 00:51:05;;;;;;;7.95;1.10;;;;;;;9.93;100.00;99816.53;5035472;28;20514;-48
2022/10/16 00:53:32;;;;;;;5.10;1.17;;;;;;;9.90;100.00;99816.13;5041907;28;20056;-50
2022/10/16 00:55:57;;;;;;;7.50;1.55;;;;;;;9.83;100.00;99811.66;5036831;28;20018;-50
2022/10/16 00:58:22;;;;;;;7.57;1.27;;;;;;;9.91;100.00;99812.47;5036442;28;20032;-49
2022/10/16 01:00:48;;;;;;;10.75;3.00;;;;;;;9.93;100.00;99819.19;5035313;28;20021;-48
2022/10/16 01:03:46;;;;;;;3.53;0.85;;;;;;;9.96;100.00;99824.06;5035008;28;20052;-48
2022/10/16 01:06:36;;;;;;;6.47;1.30;;;;;;;10.03;100.00;99832.03;5022474;28;20038;-52
2022/10/16 01:09:06;;;;;;;8.15;1.63;;;;;;;10.03;100.00;99821.44;5032713;28;20061;-52
2022/10/16 01:11:36;;;;;;;5.05;1.10;;;;;;;9.95;100.00;99824.28;5034625;28;20029;-50
2022/10/16 01:14:11;;;;;;;10.82;2.05;;;;;;;9.96;100.00;99825.91;5050180;28;20029;-53
2022/10/16 01:16:58;;;;;;;8.40;0.70;;;;;;;9.95;100.00;99830.41;5035853;28;20060;-47
2022/10/16 01:19:44;;;;;;;5.43;1.17;;;;;;;10.02;100.00;99825.13;5052768;28;20359;-52
2022/10/16 01:22:09;;;;;;;4.60;0.43;;;;;;;9.93;100.00;99810.44;5043255;28;20029;-47
2022/10/16 01:24:40;;;;;;;13.48;1.83;;;;;;;9.86;100.00;99801.66;5039439;28;20092;-48
2022/10/16 01:27:08;;;;;;;2.75;0.73;;;;;;;9.92;100.00;99817.56;5043307;28;20025;-52
2022/10/16 01:29:49;;;;;;;11.52;1.58;;;;;;;9.94;100.00;99810.25;5046577;28;20041;-52
2022/10/16 01:32:20;;;;;;;15.63;2.42;;;;;;;10.02;100.00;99822.47;5033596;28;20497;-51
2022/10/16 01:35:14;;;;;;;5.45;0.50;;;;;;;10.05;100.00;99830.81;5033067;28;20580;-51
2022/10/16 01:37:52;;;;;;;13.68;3.00;;;;;;;10.12;100.00;99828.19;5031442;28;20045;-48
2022/10/16 01:40:20;;;;;;;9.25;1.70;;;;;;;10.13;100.00;99831.63;5041304;28;20021;-47
2022/10/16 01:42:51;;;;;;;5.90;1.33;;;;;;;10.13;100.00;99827.16;5039351;28;20048;-51
2022/10/16 01:45:20;;;;;;;2.25;0.73;;;;;;;10.11;100.00;99831.03;5040277;28;20024;-50
2022/10/16 01:47:47;;;;;;;5.78;1.55;;;;;;;10.01;100.00;99836.72;5046891;28;20083;-48
2022/10/16 01:50:16;;;;;;;1.55;0.73;;;;;;;10.03;100.00;99834.69;5036587;28;20030;-49
2022/10/16 01:52:45;;;;;;;7.78;1.98;;;;;;;9.98;100.00;99845.06;5045191;28;20124;-49
2022/10/16 01:55:14;;;;;;;7.03;1.10;;;;;;;9.85;100.00;99850.34;5040270;28;20090;-48
2022/10/16 01:57:44;;;;;;;7.50;0.47;;;;;;;9.80;100.00;99849.09;5036090;28;20029;-46
2022/10/16 02:00:13;;;;;;;4.35;1.67;;;;;;;9.81;100.00;99849.94;5033983;28;20500;-49
2022/10/16 02:02:47;;;;;;;8.57;2.63;;;;;;;9.76;100.00;99837.31;5043725;28;20494;-47
2022/10/16 02:05:33;;;;;;;8.90;1.45;;;;;;;9.67;100.00;99838.50;5037028;28;20033;-49
2022/10/16 02:07:59;;;;;;;5.80;0.55;;;;;;;9.53;100.00;99848.25;5043252;28;20535;-49
2022/10/16 02:10:25;;;;;;;9.82;1.05;;;;;;;9.48;100.00;99853.31;5035800;28;20021;-49
2022/10/16 02:12:58;;;;;;;6.40;0.82;;;;;;;9.51;100.00;99850.28;5039212;28;20033;-51
2022/10/16 02:15:23;;;;;;;8.05;0.28;;;;;;;9.45;100.00;99852.88;5030454;28;20056;-47
2022/10/16 02:17:49;;;;;;;6.80;0.90;;;;;;;9.41;100.00;99847.19;5030886;28;20029;-49
2022/10/16 02:20:14;;;;;;;5.97;0.88;;;;;;;9.37;100.00;99848.59;5045697;28;20446;-51
2022/10/16 02:22:47;;;;;;;9.23;0.70;;;;;;;9.33;100.00;99855.31;5033801;28;20037;-50
2022/10/16 02:25:27;;;;;;;9.20;0.93;;;;;;;9.37;100.00;99864.47;5041151;28;20375;-49
2022/10/16 02:28:17;;;;;;;9.02;1.50;;;;;;;9.36;100.00;99862.84;5041430;28;20136;-52
2022/10/16 02:30:46;;;;;;;9.13;1.33;;;;;;;9.39;100.00;99867.72;5039696;28;20024;-50
2022/10/16 02:33:14;;;;;;;10.80;1.27;;;;;;;9.35;100.00;99877.09;5044452;28;20060;-48
2022/10/16 02:35:41;;;;;;;3.33;0.25;;;;;;;9.22;100.00;99887.63;5035249;28;20113;-51
2022/10/16 02:38:08;;;;;;;3.83;0.88;;;;;;;9.18;100.00;99892.47;5038440;28;20036;-51
2022/10/16 02:40:34;;;;;;;4.35;0.95;;;;;;;9.10;100.00;99900.56;5036951;28;20024;-48
2022/10/16 02:42:59;;;;;;;6.55;0.68;;;;;;;9.03;100.00;99902.34;5034703;28;20029;-47
2022/10/16 02:45:25;;;;;;;7.93;2.05;;;;;;;9.06;100.00;99904.59;5035615;28;20126;-49
2022/10/16 02:47:50;;;;;;;11.40;1.20;;;;;;;9.19;100.00;99899.41;5036776;28;20033;-47
2022/10/16 02:50:16;;;;;;;4.05;0.22;;;;;;;9.13;100.00;99902.81;5042764;28;20394;-48
2022/10/16 02:52:42;;;;;;;6.20;0.75;;;;;;;9.00;100.00;99908.03;5039249;28;20517;-48
2022/10/16 02:55:07;;;;;;;5.78;1.23;;;;;;;8.98;100.00;99913.50;5035423;28;20061;-49
2022/10/16 02:57:33;;;;;;;7.25;0.65;;;;;;;8.95;100.00;99912.06;5032796;28;20108;-48
2022/10/16 02:59:58;;;;;;;7.32;0.57;;;;;;;8.93;100.00;99914.13;5037382;28;20424;-47
2022/10/16 03:02:24;;;;;;;11.50;1.05;;;;;;;8.87;100.00;99916.72;5036251;28;20029;-50
2022/10/16 03:04:49;;;;;;;9.73;0.65;;;;;;;8.82;100.00;99925.22;5038782;28;20029;-53
2022/10/16 03:07:15;;;;;;;7.47;0.70;;;;;;;8.80;100.00;99924.59;5041652;28;20033;-47
2022/10/16 03:09:40;;;;;;;4.90;1.27;;;;;;;8.72;100.00;99930.03;5040466;28;20490;-49
2022/10/16 03:12:06;;;;;;;5.47;0.77;;;;;;;8.61;100.00;99933.19;5037893;28;20021;-50
2022/10/16 03:14:31;;;;;;;6.25;0.52;;;;;;;8.65;100.00;99945.03;5038806;28;20032;-48
2022/10/16 03:16:56;;;;;;;3.85;0.63;;;;;;;8.63;100.00;99942.56;5036130;28;20479;-48
2022/10/16 03:19:22;;;;;;;6.80;1.20;;;;;;;8.57;100.00;99948.63;5037625;28;20029;-50
2022/10/16 03:21:47;;;;;;;7.78;0.55;;;;;;;8.50;100.00;99945.91;5038267;28;20032;-51
2022/10/16 03:24:12;;;;;;;2.72;0.65;;;;;;;8.43;100.00;99950.31;5034108;28;20027;-49
2022/10/16 03:26:38;;;;;;;4.28;1.48;;;;;;;8.43;100.00;99955.59;5032066;28;20037;-51
2022/10/16 03:29:03;;;;;;;9.23;0.85;;;;;;;8.49;100.00;99956.66;5045539;28;20061;-52
2022/10/16 03:31:29;;;;;;;7.07;0.40;;;;;;;8.46;100.00;99955.22;5029467;28;20034;-49
2022/10/16 03:33:56;;;;;;;8.40;0.57;;;;;;;8.41;100.00;99957.63;5048877;28;20024;-49
2022/10/16 03:36:21;;;;;;;4.80;0.52;;;;;;;8.31;100.00;99957.06;5037616;28;20026;-47
2022/10/16 03:38:46;;;;;;;9.52;2.97;;;;;;;8.30;100.00;99969.47;5037546;28;20070;-48
2022/10/16 03:41:12;;;;;;;9.40;0.52;;;;;;;8.29;100.00;99974.97;5046762;28;20036;-49
2022/10/16 03:43:37;;;;;;;3.78;0.60;;;;;;;8.24;100.00;99964.16;5046048;28;20021;-48
2022/10/16 03:46:02;;;;;;;2.67;0.65;;;;;;;8.18;100.00;99976.25;5043303;28;20044;-50
2022/10/16 03:48:29;;;;;;;12.38;1.05;;;;;;;8.22;100.00;99977.53;5041500;28;20029;-50
2022/10/16 03:50:54;;;;;;;3.97;0.90;;;;;;;8.21;100.00;99982.97;5030888;28;20025;-47
2022/10/16 03:53:20;;;;;;;6.25;1.83;;;;;;;8.13;100.00;99977.81;5048182;28;20040;-48
2022/10/16 03:55:45;;;;;;;4.47;0.50;;;;;;;8.06;100.00;99988.34;5038466;28;20025;-48
2022/10/16 03:58:11;;;;;;;2.88;0.13;;;;;;;8.05;100.00;99984.03;5037750;28;20056;-47
2022/10/16 04:00:41;;;;;;;4.22;0.30;;;;;;;8.07;100.00;99996.06;5043231;28;20033;-51
2022/10/16 04:03:06;;;;;;;9.23;0.68;;;;;;;8.07;100.00;100001.34;5044676;28;20094;-48
2022/10/16 04:05:31;;;;;;;8.00;1.00;;;;;;;8.05;100.00;99992.81;5039576;28;20429;-50
2022/10/16 04:07:57;;;;;;;2.83;0.38;;;;;;;7.97;100.00;100002.63;5038968;28;20040;-48
2022/10/16 04:10:22;;;;;;;5.40;0.65;;;;;;;7.90;100.00;100013.13;5038990;28;20032;-50
2022/10/16 04:12:47;;;;;;;9.63;1.13;;;;;;;7.84;100.00;100017.31;5035884;28;20029;-47
2022/10/16 04:15:13;;;;;;;3.97;1.02;;;;;;;7.84;100.00;100022.59;5037942;28;20029;-49
2022/10/16 04:17:38;;;;;;;8.75;1.70;;;;;;;7.84;100.00;100021.78;5047483;28;20414;-47
2022/10/16 04:20:04;;;;;;;6.55;0.80;;;;;;;7.82;100.00;100032.53;5035289;28;20303;-49
2022/10/16 04:22:30;;;;;;;2.53;0.32;;;;;;;7.76;100.00;100035.06;5036058;28;20047;-48
2022/10/16 04:24:55;;;;;;;6.97;0.45;;;;;;;7.68;100.00;100040.47;5042755;28;20017;-47
2022/10/16 04:27:20;;;;;;;1.27;0.40;;;;;;;7.67;100.00;100052.84;5038782;28;20048;-49
2022/10/16 04:29:46;;;;;;;8.48;1.38;;;;;;;7.48;100.00;100056.81;5037115;28;20048;-47
2022/10/16 04:32:11;;;;;;;5.97;1.05;;;;;;;7.37;100.00;100067.81;5031047;28;20109;-51
2022/10/16 04:34:38;;;;;;;3.47;0.93;;;;;;;7.30;100.00;100065.06;5036627;28;20094;-49
2022/10/16 04:37:04;;;;;;;13.68;2.58;;;;;;;7.26;100.00;100071.72;5031316;28;20653;-47
2022/10/16 04:39:29;;;;;;;6.80;0.65;;;;;;;7.20;100.00;100078.53;5038383;28;20112;-49
2022/10/16 04:41:55;;;;;;;1.33;0.25;;;;;;;7.13;100.00;100079.44;5048153;28;20071;-50
2022/10/16 04:44:20;;;;;;;5.32;0.95;;;;;;;7.07;100.00;100083.56;5032063;28;20037;-50
2022/10/16 04:46:45;;;;;;;4.80;0.63;;;;;;;7.02;100.00;100091.19;5038734;28;20341;-47
2022/10/16 04:49:11;;;;;;;3.42;0.55;;;;;;;6.99;100.00;100089.72;5044135;28;20041;-48
2022/10/16 04:51:36;;;;;;;10.45;1.92;;;;;;;6.97;100.00;100109.38;5035467;28;20033;-51
2022/10/16 04:54:01;;;;;;;4.85;1.23;;;;;;;6.98;100.00;100105.72;5038977;28;20108;-46
2022/10/16 04:56:27;;;;;;;5.32;1.23;;;;;;;7.00;100.00;100111.66;5038251;28;21460;-50
2022/10/16 04:58:52;;;;;;;4.90;1.90;;;;;;;6.97;100.00;100125.19;5039115;28;20039;-51
2022/10/16 05:01:17;;;;;;;9.65;0.40;;;;;;;7.03;100.00;100124.47;5038452;28;20025;-48
2022/10/16 05:03:43;;;;;;;5.80;1.75;;;;;;;7.07;100.00;100136.28;5037392;28;20029;-47
2022/10/16 05:06:08;;;;;;;7.90;1.38;;;;;;;7.07;100.00;100135.47;5042133;28;20027;-47
2022/10/16 05:08:34;;;;;;;3.33;1.02;;;;;;;7.07;100.00;100148.66;5036673;28;20184;-48
2022/10/16 05:10:59;;;;;;;4.60;1.77;;;;;;;7.03;100.00;100156.13;5031429;28;20069;-48
2022/10/16 05:13:25;;;;;;;7.60;0.45;;;;;;;6.98;100.00;100161.91;5037311;28;20037;-50
2022/10/16 05:15:50;;;;;;;2.28;0.73;;;;;;;6.96;100.00;100160.44;5040292;28;20379;-49
2022/10/16 05:18:16;;;;;;;4.43;0.65;;;;;;;6.85;100.00;100171.41;5039677;28;20178;-49
2022/10/16 05:20:41;;;;;;;5.88;0.63;;;;;;;6.69;100.00;100181.03;5034613;28;20045;-48
2022/10/16 05:23:07;;;;;;;3.50;0.30;;;;;;;6.57;100.00;100176.31;5040318;28;20044;-48
2022/10/16 05:25:33;;;;;;;2.08;1.00;;;;;;;6.33;100.00;100173.63;5044493;28;20047;-49
2022/10/16 05:27:58;;;;;;;1.90;0.20;;;;;;;6.14;100.00;100179.28;5038852;28;20079;-52
2022/10/16 05:30:23;;;;;;;1.40;0.75;;;;;;;5.99;100.00;100184.44;5037207;28;20127;-49
2022/10/16 05:46:16;;;;;;;5.45;0.95;;;;;;;5.44;100.00;100206.16;5035550;28;20448;-51
2022/10/16 05:48:42;;;;;;;2.50;0.20;;;;;;;5.32;100.00;100202.19;5041613;28;20029;-47
2022/10/16 05:51:10;;;;;;;1.65;0.20;;;;;;;5.20;100.00;100204.34;5031282;28;20048;-46
2022/10/16 05:53:37;;;;;;;1.70;0.00;;;;;;;5.08;100.00;100213.50;5046663;28;20078;-50
2022/10/16 05:56:04;;;;;;;2.40;0.20;;;;;;;5.02;100.00;100209.72;5036872;28;20512;-48
2022/10/16 05:58:32;;;;;;;1.25;0.10;;;;;;;4.93;100.00;100219.41;5040250;28;20047;-48
2022/10/16 06:01:01;;;;;;;2.42;0.47;;;;;;;4.94;100.00;100225.47;5038159;28;20020;-51
2022/10/16 06:03:27;;;;;;;1.42;1.35;;;;;;;4.91;100.00;100216.13;5031407;28;20378;-51
2022/10/16 06:05:52;;;;;;;3.45;0.40;;;;;;;4.84;100.00;100224.78;5040829;28;20028;-47
2022/10/16 06:08:19;;;;;;;1.45;0.22;;;;;;;4.84;100.00;100225.63;5031880;28;20764;-49
2022/10/16 06:10:45;;;;;;;2.40;0.50;;;;;;;4.86;100.00;100236.78;5042798;28;20036;-46
2022/10/16 06:13:12;;;;;;;3.78;0.47;;;;;;;4.83;100.00;100237.13;5030588;28;20021;-49
2022/10/16 06:15:38;;;;;;;8.23;0.68;;;;;;;4.82;100.00;100244.16;5038825;28;20383;-48
2022/10/16 06:18:04;;;;;;;7.35;0.13;;;;;;;4.72;100.00;100250.50;5035802;28;20162;-46
2022/10/16 06:20:30;;;;;;;5.68;1.02;;;;;;;4.49;100.00;100250.25;5032295;28;20668;-51
2022/10/16 06:22:55;;;;;;;3.17;0.52;;;;;;;4.38;100.00;100254.78;5037754;28;20033;-49
2022/10/16 06:25:21;;;;;;;2.30;1.23;;;;;;;4.28;100.00;100254.09;5040875;28;20037;-50
2022/10/16 06:27:46;;;;;;;0.10;0.10;;;;;;;4.26;100.00;100258.69;5030114;28;20516;-48
2022/10/16 06:30:11;;;;;;;3.60;0.40;;;;;;;4.24;100.00;100255.38;5037930;28;20029;-49
2022/10/16 06:32:36;;;;;;;0.32;0.08;;;;;;;4.19;100.00;100265.53;5035022;28;20059;-48
2022/10/16 06:35:02;;;;;;;7.78;0.88;;;;;;;4.22;100.00;100264.41;5043251;28;20044;-50
2022/10/16 06:37:27;;;;;;;3.05;0.38;;;;;;;4.19;100.00;100268.16;5030418;28;20509;-52
2022/10/16 06:39:53;;;;;;;3.95;0.10;;;;;;;4.19;100.00;100267.34;5034855;28;20025;-48
2022/10/16 06:42:18;;;;;;;0.40;0.35;;;;;;;4.22;100.00;100265.22;5033392;28;20465;-47
2022/10/16 06:44:44;;;;;;;0.98;0.22;;;;;;;4.21;100.00;100275.84;5043984;28;20037;-49
2022/10/16 06:47:09;;;;;;;0.75;0.10;;;;;;;4.17;100.00;100275.34;5047272;28;20029;-47
2022/10/16 06:49:35;;;;;;;2.85;0.30;;;;;;;4.14;100.00;100278.28;5032716;28;20082;-51
2022/10/16 06:52:01;;;;;;;2.20;0.55;;;;;;;4.08;100.00;100286.75;5043014;28;20052;-46
2022/10/16 06:54:26;;;;;;;3.00;0.43;;;;;;;4.04;100.00;100291.50;5042282;28;20482;-49
2022/10/16 06:56:54;;;;;;;2.50;0.77;;;;;;;4.01;100.00;100291.81;5036776;28;20026;-48
2022/10/16 06:59:20;;;;;;;2.75;1.23;;;;;;;4.02;100.00;100298.69;5040818;28;20109;-48
2022/10/16 07:01:45;;;;;;;2.55;0.22;;;;;;;4.03;100.00;100302.97;5039132;28;20108;-49
2022/10/16 07:04:10;;;;;;;1.85;0.32;;;;;;;4.06;100.00;100305.28;5045480;28;20048;-47
2022/10/16 07:06:36;;;;;;;3.95;0.15;;;;;;;4.03;100.00;100316.09;5041263;28;20044;-49
2022/10/16 07:09:04;;;;;;;2.72;0.90;;;;;;;4.07;100.00;100324.47;5045690;28;20025;-51
2022/10/16 07:11:30;;;;;;;2.17;1.95;;;;;;;4.03;100.00;100333.66;5033995;28;20044;-52
2022/10/16 07:13:55;;;;;;;3.92;0.10;;;;;;;4.00;100.00;100332.16;5047668;28;20029;-47
2022/10/16 07:16:23;;;;;;;0.32;0.20;;;;;;;4.00;100.00;100347.91;5034425;28;20116;-48
2022/10/16 07:18:49;;;;;;;6.05;0.10;;;;;;;3.96;100.00;100351.78;5036746;28;20555;-47
2022/10/16 07:21:20;;;;;;;5.78;0.20;;;;;;;4.01;100.00;100354.78;5030726;28;20037;-50
2022/10/16 07:23:50;;;;;;;1.13;1.10;;;;;;;4.02;100.00;100351.16;5039033;28;20086;-49
2022/10/16 07:26:15;;;;;;;1.63;1.20;;;;;;;4.05;100.00;100356.13;5045135;28;20151;-49
2022/10/16 07:28:43;;;;;;;1.85;0.95;;;;;;;4.12;100.00;100359.78;5040512;28;20132;-52
2022/10/16 07:31:11;;;;;;;5.88;0.20;;;;;;;4.21;100.00;100370.34;5041792;28;20124;-48
2022/10/16 07:33:38;;;;;;;4.65;0.55;;;;;;;4.26;100.00;100368.94;5038002;28;20030;-47
2022/10/16 07:36:04;;;;;;;2.40;1.65;;;;;;;4.30;100.00;100374.69;5040225;28;20025;-50
2022/10/16 07:38:29;;;;;;;0.47;0.38;;;;;;;4.33;100.00;100372.56;5046609;28;20071;-49
2022/10/16 07:40:59;;;;;;;5.10;1.00;;;;;;;4.39;100.00;100379.03;5038365;28;20029;-49
2022/10/16 07:43:26;;;;;;;2.30;0.20;;;;;;;4.55;100.00;100380.94;5042138;28;20067;-50
2022/10/16 07:45:51;;;;;;;5.88;1.75;;;;;;;4.74;100.00;100385.97;5039382;28;20339;-50
2022/10/16 07:48:17;;;;;;;4.65;0.30;;;;;;;4.91;100.00;100397.41;5040659;28;20029;-47
2022/10/16 07:50:43;;;;;;;1.30;0.63;;;;;;;5.05;100.00;100408.31;5037749;28;20060;-50
2022/10/16 07:53:09;;;;;;;6.25;1.23;;;;;;;5.14;100.00;100404.75;5030607;28;20076;-49
2022/10/16 07:55:35;;;;;;;4.25;0.68;;;;;;;5.28;100.00;100404.13;5038501;28;20044;-51
2022/10/16 07:58:00;;;;;;;5.82;1.00;;;;;;;5.45;100.00;100412.91;5041881;28;20033;-51
2022/10/16 08:00:25;;;;;;;6.28;0.88;;;;;;;5.73;100.00;100412.66;5041509;28;20033;-52
2022/10/16 08:02:51;;;;;;;6.22;0.70;;;;;;;6.06;100.00;100419.66;5033971;28;20021;-53
2022/10/16 08:05:16;;;;;;;5.88;1.08;;;;;;;6.31;100.00;100420.50;5039586;28;20078;-49
2022/10/16 08:07:42;;;;;;;6.25;1.77;;;;;;;6.49;100.00;100425.59;5041128;28;20048;-47
2022/10/16 08:10:16;;;;;;;3.60;0.65;;;;;;;6.70;100.00;100432.97;5039672;28;20029;-48
2022/10/16 08:12:42;;;;;;;1.77;0.47;;;;;;;6.86;100.00;100433.94;5038260;28;20147;-47
2022/10/16 08:15:08;;;;;;;8.43;2.15;;;;;;;6.96;100.00;100434.56;5041566;28;20025;-50
2022/10/16 08:17:33;;;;;;;2.78;0.60;;;;;;;7.13;100.00;100438.81;5035886;28;20029;-48
2022/10/16 08:19:58;;;;;;;9.80;3.13;;;;;;;7.38;100.00;100436.09;5036345;28;20080;-50
2022/10/16 08:22:24;;;;;;;3.70;0.32;;;;;;;7.62;100.00;100445.72;5038760;28;20074;-47
2022/10/16 08:24:49;;;;;;;4.78;0.25;;;;;;;7.81;100.00;100444.47;5031750;28;20025;-47
2022/10/16 08:27:14;;;;;;;4.68;1.42;;;;;;;8.01;100.00;100456.22;5039953;28;20079;-52
2022/10/16 08:29:40;;;;;;;7.78;1.73;;;;;;;8.27;100.00;100460.34;5032011;28;20116;-51
2022/10/16 08:32:05;;;;;;;4.32;1.75;;;;;;;8.50;100.00;100460.38;5032263;28;20060;-49
2022/10/16 08:34:30;;;;;;;6.15;0.70;;;;;;;8.68;100.00;100466.16;5030802;28;20036;-52
2022/10/16 08:36:56;;;;;;;3.47;0.40;;;;;;;8.82;100.00;100464.53;5025555;28;20056;-49
2022/10/16 08:39:21;;;;;;;3.25;0.82;;;;;;;8.95;100.00;100458.63;5027910;28;20025;-50
2022/10/16 08:42:24;;;;;;;3.05;1.08;;;;;;;9.16;100.00;100461.41;5028000;28;21115;-49
2022/10/16 08:45:08;;;;;;;6.95;1.35;;;;;;;9.31;100.00;100458.72;5024602;28;20107;-53
2022/10/16 08:47:48;;;;;;;5.18;1.83;;;;;;;9.47;100.00;100462.19;5027754;28;20040;-50
2022/10/16 08:50:24;;;;;;;0.70;0.45;;;;;;;9.65;100.00;100459.97;5031280;28;20068;-50
2022/10/16 08:52:50;;;;;;;2.95;0.40;;;;;;;9.75;100.00;100464.97;5023931;28;20052;-51
2022/10/16 08:55:33;;;;;;;4.70;0.30;;;;;;;9.96;100.00;100462.34;5037202;28;20029;-52
2022/10/16 08:57:59;;;;;;;8.75;0.57;;;;;;;10.17;100.00;100452.78;5029782;28;20037;-49
2022/10/16 09:00:26;;;;;;;7.53;0.57;;;;;;;10.30;100.00;100457.44;5035830;28;20406;-49
2022/10/16 09:03:14;;;;;;;10.18;1.13;;;;;;;10.50;100.00;100461.09;5036712;28;20021;-51
2022/10/16 09:06:11;;;;;;;3.42;1.27;;;;;;;10.64;100.00;100462.84;5038355;28;20033;-50
2022/10/16 09:08:46;;;;;;;11.88;2.03;;;;;;;10.78;100.00;100465.59;5036812;28;20036;-49
2022/10/16 09:11:17;;;;;;;7.15;0.70;;;;;;;10.81;100.00;100451.94;5032395;28;20028;-48
2022/10/16 09:14:15;;;;;;;8.48;1.13;;;;;;;10.96;100.00;100447.34;5033681;28;20330;-49
2022/10/16 09:16:50;;;;;;;5.03;0.45;;;;;;;11.10;100.00;100456.22;5031865;28;20560;-49
2022/10/16 09:19:33;;;;;;;4.00;1.45;;;;;;;11.21;100.00;100468.94;5031137;28;20043;-52
2022/10/16 09:22:10;;;;;;;4.47;1.42;;;;;;;11.26;100.00;100473.69;5041079;28;20061;-51
2022/10/16 09:24:36;;;;;;;4.47;1.33;;;;;;;11.37;100.00;100478.44;5034976;28;20366;-47
2022/10/16 09:27:02;;;;;;;4.18;0.95;;;;;;;11.48;100.00;100472.56;5036372;28;20021;-47
2022/10/16 09:29:27;;;;;;;7.75;2.03;;;;;;;11.55;100.00;100473.41;5044260;28;20409;-50
2022/10/16 09:31:55;;;;;;;1.52;0.77;;;;;;;11.67;100.00;100473.69;5033591;28;20025;-50
2022/10/16 09:34:56;;;;;;;7.03;0.75;;;;;;;11.77;100.00;100475.94;5028195;28;20525;-50
2022/10/16 09:37:23;;;;;;;3.25;0.30;;;;;;;11.85;100.00;100470.47;5052935;28;20033;-49
2022/10/16 09:39:53;;;;;;;2.80;1.10;;;;;;;11.95;100.00;100472.75;5038503;28;20029;-48
2022/10/16 09:42:27;;;;;;;4.55;1.15;;;;;;;12.05;100.00;100459.09;5037084;28;20124;-46
2022/10/16 09:44:53;;;;;;;6.10;2.28;;;;;;;12.14;100.00;100465.88;5028445;28;20155;-47
2022/10/16 09:47:23;;;;;;;9.80;1.30;;;;;;;12.20;100.00;100473.84;5032440;28;20029;-50
2022/10/16 09:49:53;;;;;;;5.70;0.65;;;;;;;12.27;100.00;100471.22;5028843;28;20036;-50
2022/10/16 09:52:19;;;;;;;7.45;0.55;;;;;;;12.37;100.00;100468.97;5035319;28;20389;-47
2022/10/16 09:54:52;;;;;;;3.72;0.93;;;;;;;12.53;100.00;100464.28;5033803;28;20018;-51
2022/10/16 09:57:18;;;;;;;3.67;0.47;;;;;;;12.63;100.00;100468.19;5042635;28;20457;-47
2022/10/16 09:59:51;;;;;;;12.38;1.27;;;;;;;12.77;100.00;100468.97;5037058;28;20048;-48
2022/10/16 10:02:20;;;;;;;4.80;0.30;;;;;;;12.92;100.00;100473.28;5037188;28;20021;-47
2022/10/16 10:04:51;;;;;;;2.65;0.45;;;;;;;13.03;100.00;100470.78;5024666;28;20522;-48
2022/10/16 10:07:43;;;;;;;3.90;0.45;;;;;;;13.12;100.00;100465.28;5036662;28;20469;-54
2022/10/16 10:10:26;;;;;;;2.88;0.38;;;;;;;13.24;100.00;100472.41;5032794;28;20036;-51
2022/10/16 10:12:53;;;;;;;6.88;1.95;;;;;;;13.34;100.00;100465.84;5027269;28;20056;-49
2022/10/16 10:15:21;;;;;;;7.05;2.42;;;;;;;13.36;100.00;100466.47;5035752;28;20213;-50
2022/10/16 10:17:52;;;;;;;5.00;1.67;;;;;;;13.48;100.00;100462.13;5030168;28;20253;-49
2022/10/16 10:20:31;;;;;;;5.85;1.73;;;;;;;13.54;100.00;100453.28;5032535;28;20079;-50
2022/10/16 10:22:57;;;;;;;4.60;1.83;;;;;;;13.64;100.00;100461.66;5030287;28;20035;-49
2022/10/16 10:25:26;;;;;;;9.23;1.00;;;;;;;13.69;100.00;100464.50;5025681;28;20025;-50
2022/10/16 10:28:10;;;;;;;2.17;0.32;;;;;;;13.62;100.00;100453.03;5025409;28;20136;-52
2022/10/16 10:30:57;;;;;;;6.43;1.27;;;;;;;13.74;100.00;100439.88;5033981;28;20041;-52
2022/10/16 10:33:22;;;;;;;3.28;0.40;;;;;;;13.91;100.00;100445.53;5028585;28;20029;-47
2022/10/16 10:36:16;;;;;;;2.38;0.63;;;;;;;14.09;100.00;100450.94;5024592;28;20029;-49
2022/10/16 10:39:04;;;;;;;5.22;0.63;;;;;;;14.27;100.00;100450.22;5037624;28;20100;-48
2022/10/16 10:41:29;;;;;;;2.17;0.38;;;;;;;14.38;100.00;100451.38;5044389;28;20028;-48
2022/10/16 10:44:12;;;;;;;8.93;1.38;;;;;;;14.46;100.00;100440.44;5045597;28;20364;-49
2022/10/16 10:46:50;;;;;;;4.30;0.40;;;;;;;14.53;100.00;100438.59;5047778;28;20312;-49
2022/10/16 10:49:28;;;;;;;1.10;0.17;;;;;;;14.66;100.00;100442.16;5040075;28;20605;-49
2022/10/16 10:52:06;;;;;;;3.90;0.17;;;;;;;14.76;100.00;100447.81;5030295;28;20036;-49
2022/10/16 10:54:43;;;;;;;6.85;0.82;;;;;;;14.81;100.00;100445.31;5042973;28;20025;-52
2022/10/16 10:57:40;;;;;;;5.05;0.50;;;;;;;14.86;100.00;100440.13;5038283;28;20033;-49
2022/10/16 11:00:30;;;;;;;5.28;0.35;;;;;;;14.88;100.00;100439.91;5044032;28;20487;-52
2022/10/16 11:03:05;;;;;;;2.58;0.73;;;;;;;15.03;100.00;100445.72;5038813;28;20426;-49
2022/10/16 11:05:42;;;;;;;0.77;0.28;;;;;;;15.05;100.00;100435.63;5045147;28;20383;-54
2022/10/16 11:08:40;;;;;;;2.65;0.70;;;;;;;15.10;100.00;100440.28;5037836;28;20029;-55
2022/10/16 11:11:20;;;;;;;4.10;0.40;;;;;;;15.05;100.00;100425.75;5039533;28;20465;-52
2022/10/16 11:13:54;;;;;;;11.18;2.17;;;;;;;15.03;100.00;100427.84;5045883;28;20028;-49
2022/10/16 11:16:34;;;;;;;5.78;0.82;;;;;;;15.27;100.00;100433.31;5042354;28;20065;-47
2022/10/16 11:19:13;;;;;;;4.53;0.22;;;;;;;15.44;100.00;100426.34;5048750;28;20041;-50
2022/10/16 11:21:53;;;;;;;3.42;0.28;;;;;;;15.57;100.00;100421.88;5039688;28;20355;-48
2022/10/16 11:24:29;;;;;;;3.37;0.20;;;;;;;15.60;100.00;100421.44;5038984;28;20021;-50
2022/10/16 11:26:59;;;;;;;4.65;0.45;;;;;;;15.76;100.00;100420.03;5046777;28;20092;-49
2022/10/16 11:29:28;;;;;;;3.00;0.88;;;;;;;15.78;100.00;100413.41;5038488;28;20068;-52
2022/10/16 11:31:59;;;;;;;7.60;1.08;;;;;;;15.87;100.00;100409.34;5032572;28;20544;-51
2022/10/16 11:34:49;;;;;;;5.07;0.65;;;;;;;16.01;100.00;100420.69;5038972;28;20079;-53
2022/10/16 11:37:19;;;;;;;4.40;0.70;;;;;;;16.04;100.00;100414.06;5039479;28;20075;-50
2022/10/16 11:39:46;;;;;;;2.85;1.17;;;;;;;16.04;100.00;100406.03;5039660;28;20386;-49
2022/10/16 11:42:19;;;;;;;5.57;0.40;;;;;;;16.05;100.00;100413.00;5043980;28;20445;-48
2022/10/16 11:44:50;;;;;;;5.22;0.35;;;;;;;15.97;100.00;100411.47;5036946;28;20029;-46
2022/10/16 11:47:21;;;;;;;2.20;0.15;;;;;;;16.02;100.00;100416.97;5042510;28;20060;-49
2022/10/16 11:49:49;;;;;;;6.18;1.30;;;;;;;15.84;100.00;100415.16;5028940;28;20037;-52